createdAt,value
2019-06-01T00:00:13.836Z,15.50
2019-06-01T00:05:19.247Z,15.40
2019-06-01T00:10:24.754Z,15.30
2019-06-01T00:15:30.151Z,15.20
2019-06-01T00:20:35.923Z,15.10
2019-06-01T00:25:42.373Z,15.10
2019-06-01T00:30:48.060Z,15.00
2019-06-01T00:35:53.479Z,14.90
2019-06-01T00:40:59.126Z,14.90
2019-06-01T00:46:04.583Z,14.90
2019-06-01T00:51:10.047Z,14.80
2019-06-01T00:56:15.454Z,14.80
2019-06-01T01:01:20.862Z,14.70
2019-06-01T01:06:26.295Z,14.70
2019-06-01T01:11:31.711Z,14.70
2019-06-01T01:16:37.181Z,14.60
2019-06-01T01:21:42.682Z,14.60
2019-06-01T01:26:48.475Z,14.50
2019-06-01T01:31:53.975Z,14.50
2019-06-01T01:36:59.763Z,14.50
2019-06-01T01:42:05.270Z,14.40
2019-06-01T01:47:10.719Z,14.40
2019-06-01T01:52:16.135Z,14.30
2019-06-01T01:57:21.569Z,14.30
2019-06-01T02:02:27.019Z,14.30
2019-06-01T02:07:32.455Z,14.20
2019-06-01T02:12:37.982Z,14.20
2019-06-01T02:17:43.408Z,14.20
2019-06-01T02:22:48.828Z,14.10
2019-06-01T02:27:55.031Z,14.10
2019-06-01T02:33:02.214Z,14.10
2019-06-01T02:38:09.362Z,14.00
2019-06-01T02:43:14.833Z,14.00
2019-06-01T02:48:20.278Z,14.00
2019-06-01T02:53:25.720Z,14.00
2019-06-01T02:58:31.159Z,14.00
2019-06-01T03:03:36.623Z,13.90
2019-06-01T03:08:42.857Z,14.00
2019-06-01T03:13:48.314Z,14.00
2019-06-01T03:18:53.900Z,14.00
2019-06-01T03:24:09.402Z,14.00
2019-06-01T03:29:18.524Z,14.00
2019-06-01T03:34:23.932Z,14.00
2019-06-01T03:39:29.743Z,14.00
2019-06-01T03:44:35.181Z,14.00
2019-06-01T03:49:40.697Z,14.10
2019-06-01T03:54:48.589Z,14.10
2019-06-01T03:59:53.260Z,14.20
2019-06-01T04:04:58.674Z,14.40
2019-06-01T04:10:05.644Z,14.50
2019-06-01T04:15:14.583Z,14.70
2019-06-01T04:20:18.349Z,14.90
2019-06-01T04:25:23.766Z,15.10
2019-06-01T04:30:29.166Z,15.20
2019-06-01T04:35:34.742Z,15.40
2019-06-01T04:40:40.252Z,15.70
2019-06-01T04:45:45.725Z,15.90
2019-06-01T04:50:51.426Z,16.10
2019-06-01T04:55:56.891Z,16.40
2019-06-01T05:01:02.323Z,16.70
2019-06-01T05:06:09.146Z,17.00
2019-06-01T05:11:15.710Z,17.40
2019-06-01T05:16:21.256Z,18.20
2019-06-01T05:21:26.670Z,19.50
2019-06-01T05:26:33.932Z,21.10
2019-06-01T05:31:39.380Z,22.50
2019-06-01T05:36:44.833Z,23.90
2019-06-01T05:41:50.398Z,25.80
2019-06-01T05:46:56.105Z,28.00
2019-06-01T05:52:02.002Z,30.00
2019-06-01T05:57:07.719Z,31.80
2019-06-01T06:02:13.407Z,32.70
2019-06-01T06:07:19.123Z,33.70
2019-06-01T06:12:24.890Z,35.30
2019-06-01T06:17:30.559Z,36.80
2019-06-01T06:22:36.445Z,38.30
2019-06-01T06:27:42.196Z,39.30
2019-06-01T06:32:47.954Z,39.70
2019-06-01T06:37:53.677Z,39.60
2019-06-01T06:42:59.423Z,39.90
2019-06-01T06:48:05.293Z,40.30
2019-06-01T06:53:24.407Z,40.50
2019-06-01T06:58:18.899Z,41.50
2019-06-01T07:03:25.280Z,42.80
2019-06-01T07:08:31.084Z,44.10
2019-06-01T07:13:36.907Z,45.50
2019-06-01T07:18:42.594Z,46.70
2019-06-01T07:23:48.347Z,47.90
2019-06-01T07:28:54.109Z,49.00
2019-06-01T07:33:59.842Z,50.10
2019-06-01T07:39:06.753Z,51.10
2019-06-01T07:44:12.637Z,51.70
2019-06-01T07:49:18.338Z,52.30
2019-06-01T07:54:24.853Z,52.60
2019-06-01T07:59:32.375Z,53.00
2019-06-01T08:04:52.830Z,53.50
2019-06-01T08:09:45.711Z,54.50
2019-06-01T08:14:51.414Z,55.20
2019-06-01T08:19:57.152Z,55.70
2019-06-01T08:25:02.862Z,56.10
2019-06-01T08:30:08.718Z,56.60
2019-06-01T08:35:14.441Z,57.20
2019-06-01T08:40:20.286Z,57.90
2019-06-01T08:45:26.006Z,57.90
2019-06-01T08:50:31.909Z,58.70
2019-06-01T08:55:37.830Z,59.50
2019-06-01T09:00:43.601Z,60.40
2019-06-01T09:05:49.352Z,61.10
2019-06-01T09:10:55.091Z,61.90
2019-06-01T09:16:00.846Z,62.70
2019-06-01T09:21:06.628Z,63.20
2019-06-01T09:26:12.318Z,63.10
2019-06-01T09:31:18.146Z,61.60
2019-06-01T09:36:23.802Z,60.70
2019-06-01T09:41:30.495Z,59.50
2019-06-01T09:46:37.396Z,58.50
2019-06-01T09:51:43.273Z,56.90
2019-06-01T09:56:49.014Z,53.10
2019-06-01T10:01:54.842Z,48.40
2019-06-01T10:07:00.583Z,44.70
2019-06-01T10:12:06.592Z,41.50
2019-06-01T10:17:12.332Z,39.00
2019-06-01T10:22:18.082Z,37.00
2019-06-01T10:27:23.859Z,35.30
2019-06-01T10:32:29.884Z,34.00
2019-06-01T10:37:35.620Z,33.00
2019-06-01T10:42:41.914Z,32.20
2019-06-01T10:47:47.796Z,31.30
2019-06-01T10:52:53.629Z,30.60
2019-06-01T10:57:59.350Z,30.10
2019-06-01T11:03:05.074Z,29.80
2019-06-01T11:08:10.809Z,29.60
2019-06-01T11:13:16.484Z,29.40
2019-06-01T11:18:22.188Z,29.20
2019-06-01T11:23:28.266Z,28.90
2019-06-01T11:28:33.960Z,28.90
2019-06-01T11:33:40.170Z,28.80
2019-06-01T11:38:46.014Z,28.70
2019-06-01T11:43:51.817Z,28.50
2019-06-01T11:48:57.586Z,28.30
2019-06-01T11:54:03.396Z,28.20
2019-06-01T11:59:09.071Z,28.30
2019-06-01T12:04:14.779Z,28.20
2019-06-01T12:09:20.760Z,28.00
2019-06-01T12:14:26.559Z,28.00
2019-06-01T12:19:32.395Z,28.10
2019-06-01T12:24:38.831Z,28.30
2019-06-01T12:29:45.743Z,28.30
2019-06-01T12:34:51.599Z,28.40
2019-06-01T12:39:57.411Z,28.40
2019-06-01T12:45:03.139Z,28.40
2019-06-01T12:50:09.150Z,28.40
2019-06-01T12:55:14.989Z,28.50
2019-06-01T13:00:21.121Z,28.50
2019-06-01T13:05:26.824Z,28.40
2019-06-01T13:10:32.722Z,28.40
2019-06-01T13:15:38.721Z,28.50
2019-06-01T13:20:45.417Z,28.60
2019-06-01T13:25:51.892Z,28.60
2019-06-01T13:30:57.623Z,28.70
2019-06-01T13:36:03.351Z,28.80
2019-06-01T13:41:09.231Z,28.80
2019-06-01T13:46:14.939Z,28.90
2019-06-01T13:51:21.013Z,28.90
2019-06-01T13:56:26.914Z,29.00
2019-06-01T14:01:32.629Z,29.00
2019-06-01T14:06:38.431Z,29.00
2019-06-01T14:11:45.261Z,28.80
2019-06-01T14:16:51.735Z,28.80
2019-06-01T14:21:57.637Z,28.80
2019-06-01T14:27:03.409Z,29.00
2019-06-01T14:32:09.379Z,29.20
2019-06-01T14:37:15.201Z,29.30
2019-06-01T14:42:20.991Z,29.40
2019-06-01T14:47:26.745Z,29.40
2019-06-01T14:52:35.180Z,29.40
2019-06-01T14:57:39.870Z,29.30
2019-06-01T15:02:45.600Z,29.30
2019-06-01T15:07:52.378Z,29.40
2019-06-01T15:13:02.648Z,29.40
2019-06-01T15:18:05.603Z,29.50
2019-06-01T15:23:11.357Z,29.40
2019-06-01T15:28:17.226Z,29.30
2019-06-01T15:33:23.019Z,29.10
2019-06-01T15:38:28.791Z,29.00
2019-06-01T15:43:34.533Z,28.90
2019-06-01T15:48:40.327Z,28.90
2019-06-01T15:53:46.185Z,29.00
2019-06-01T15:58:54.896Z,29.00
2019-06-01T16:03:59.375Z,28.90
2019-06-01T16:09:05.907Z,28.90
2019-06-01T16:14:11.733Z,28.70
2019-06-01T16:19:17.482Z,28.60
2019-06-01T16:24:23.168Z,28.50
2019-06-01T16:29:28.974Z,28.50
2019-06-01T16:34:34.768Z,28.50
2019-06-01T16:39:40.472Z,28.40
2019-06-01T16:44:46.264Z,28.30
2019-06-01T16:49:51.988Z,28.10
2019-06-01T16:54:58.217Z,28.00
2019-06-01T17:00:04.886Z,27.80
2019-06-01T17:05:10.668Z,27.60
2019-06-01T17:10:25.852Z,27.60
2019-06-01T17:15:23.752Z,27.50
2019-06-01T17:20:50.880Z,27.60
2019-06-01T17:25:58.246Z,27.50
2019-06-01T17:31:04.372Z,27.50
2019-06-01T17:36:10.363Z,27.40
2019-06-01T17:41:16.185Z,27.20
2019-06-01T17:46:21.945Z,27.10
2019-06-01T17:51:27.694Z,27.00
2019-06-01T17:56:33.355Z,26.90
2019-06-01T18:01:42.328Z,26.90
2019-06-01T18:06:46.479Z,26.80
2019-06-01T18:11:51.941Z,26.70
2019-06-01T18:16:57.655Z,26.60
2019-06-01T18:22:04.431Z,26.50
2019-06-01T18:27:10.669Z,26.50
2019-06-01T18:32:16.481Z,26.40
2019-06-01T18:37:21.928Z,26.20
2019-06-01T18:42:27.621Z,26.10
2019-06-01T18:47:33.158Z,25.90
2019-06-01T18:52:38.564Z,25.70
2019-06-01T18:57:46.406Z,25.60
2019-06-01T19:02:51.921Z,25.40
2019-06-01T19:07:57.373Z,25.20
2019-06-01T19:13:02.842Z,25.10
2019-06-01T19:18:08.375Z,24.90
2019-06-01T19:23:14.886Z,24.70
2019-06-01T19:28:20.558Z,24.50
2019-06-01T19:33:26.065Z,24.30
2019-06-01T19:38:31.623Z,24.10
2019-06-01T19:43:37.081Z,24.00
2019-06-01T19:48:42.579Z,23.70
2019-06-01T19:53:48.078Z,23.50
2019-06-01T19:58:53.496Z,23.30
2019-06-01T20:03:58.940Z,23.10
2019-06-01T20:09:06.079Z,22.90
2019-06-01T20:14:12.141Z,22.80
2019-06-01T20:19:17.854Z,22.60
2019-06-01T20:24:23.386Z,22.40
2019-06-01T20:29:28.852Z,22.30
2019-06-01T20:34:34.275Z,22.20
2019-06-01T20:39:39.707Z,22.00
2019-06-01T20:44:45.186Z,21.90
2019-06-01T20:49:50.720Z,21.80
2019-06-01T20:54:56.232Z,21.60
2019-06-01T21:00:01.742Z,21.50
2019-06-01T21:05:07.917Z,21.40
2019-06-01T21:10:14.041Z,21.40
2019-06-01T21:15:19.654Z,21.20
2019-06-01T21:20:29.535Z,21.10
2019-06-01T21:25:32.243Z,21.00
2019-06-01T21:30:37.677Z,20.90
2019-06-01T21:35:43.063Z,20.70
2019-06-01T21:40:48.567Z,20.70
2019-06-01T21:45:54.120Z,20.60
2019-06-01T21:50:59.555Z,20.50
2019-06-01T21:56:05.076Z,20.40
2019-06-01T22:01:10.714Z,20.30
2019-06-01T22:06:17.048Z,20.20
2019-06-01T22:11:23.474Z,20.10
2019-06-01T22:16:29.342Z,20.00
2019-06-01T22:21:34.767Z,19.90
2019-06-01T22:26:40.313Z,19.90
2019-06-01T22:31:45.714Z,19.80
2019-06-01T22:36:51.320Z,19.70
2019-06-01T22:41:56.834Z,19.60
2019-06-01T22:47:02.331Z,19.50
2019-06-01T22:52:07.810Z,19.50
2019-06-01T22:57:13.257Z,19.40
2019-06-01T23:02:18.695Z,19.40
2019-06-01T23:07:25.117Z,19.40
2019-06-01T23:12:31.633Z,19.20
2019-06-01T23:17:37.405Z,19.20
2019-06-01T23:22:42.960Z,19.10
2019-06-01T23:27:48.446Z,19.10
2019-06-01T23:32:53.976Z,19.00
2019-06-01T23:37:59.430Z,18.90
2019-06-01T23:43:04.983Z,18.90
2019-06-01T23:48:10.477Z,18.80
2019-06-01T23:53:16.020Z,18.80
2019-06-01T23:58:21.436Z,18.70
